sensor_id;sensor_type;location;lat;lon;timestamp;P1;durP1;ratioP1;P2;durP2;ratioP2
76208;SDS011;64990;51.698;-0.292;2024-03-08T00:01:12;99.53;;;36.67;;
76208;SDS011;64990;51.698;-0.292;2024-03-08T00:03:38;92.18;;;36.28;;
76208;SDS011;64990;51.698;-0.292;2024-03-08T00:06:05;84.10;;;35.05;;
76208;SDS011;64990;51.698;-0.292;2024-03-08T00:08:31;93.03;;;37.25;;
76208;SDS011;64990;51.698;-0.292;2024-03-08T00:10:57;89.68;;;36.05;;
76208;SDS011;64990;51.698;-0.292;2024-03-08T00:13:23;85.22;;;33.40;;
76208;SDS011;64990;51.698;-0.292;2024-03-08T00:15:50;96.38;;;34.25;;
76208;SDS011;64990;51.698;-0.292;2024-03-08T00:18:16;87.75;;;34.47;;
76208;SDS011;64990;51.698;-0.292;2024-03-08T00:20:42;88.40;;;35.65;;
76208;SDS011;64990;51.698;-0.292;2024-03-08T00:23:09;101.75;;;36.03;;
76208;SDS011;64990;51.698;-0.292;2024-03-08T00:25:36;86.53;;;34.17;;
76208;SDS011;64990;51.698;-0.292;2024-03-08T00:28:02;119.03;;;37.97;;
76208;SDS011;64990;51.698;-0.292;2024-03-08T00:30:29;88.95;;;37.13;;
76208;SDS011;64990;51.698;-0.292;2024-03-08T00:32:56;101.15;;;41.08;;
76208;SDS011;64990;51.698;-0.292;2024-03-08T00:35:22;90.57;;;37.83;;
76208;SDS011;64990;51.698;-0.292;2024-03-08T00:37:48;106.00;;;37.80;;
76208;SDS011;64990;51.698;-0.292;2024-03-08T00:40:15;91.50;;;34.58;;
76208;SDS011;64990;51.698;-0.292;2024-03-08T00:42:41;95.13;;;36.88;;
76208;SDS011;64990;51.698;-0.292;2024-03-08T00:45:08;98.95;;;34.85;;
76208;SDS011;64990;51.698;-0.292;2024-03-08T00:47:35;92.90;;;36.67;;
76208;SDS011;64990;51.698;-0.292;2024-03-08T00:50:01;93.70;;;37.03;;
76208;SDS011;64990;51.698;-0.292;2024-03-08T00:52:29;102.43;;;35.08;;
76208;SDS011;64990;51.698;-0.292;2024-03-08T00:54:55;105.35;;;41.53;;
76208;SDS011;64990;51.698;-0.292;2024-03-08T00:57:21;94.05;;;38.15;;
76208;SDS011;64990;51.698;-0.292;2024-03-08T00:59:47;87.78;;;35.45;;
76208;SDS011;64990;51.698;-0.292;2024-03-08T01:02:13;108.53;;;41.72;;
76208;SDS011;64990;51.698;-0.292;2024-03-08T01:04:39;84.95;;;35.92;;
76208;SDS011;64990;51.698;-0.292;2024-03-08T01:07:05;82.32;;;37.55;;
76208;SDS011;64990;51.698;-0.292;2024-03-08T01:09:31;84.47;;;33.95;;
76208;SDS011;64990;51.698;-0.292;2024-03-08T01:11:57;82.90;;;36.60;;
76208;SDS011;64990;51.698;-0.292;2024-03-08T01:14:23;121.05;;;43.70;;
76208;SDS011;64990;51.698;-0.292;2024-03-08T01:16:53;83.47;;;37.05;;
76208;SDS011;64990;51.698;-0.292;2024-03-08T01:19:20;87.07;;;38.00;;
76208;SDS011;64990;51.698;-0.292;2024-03-08T01:21:46;91.93;;;38.53;;
76208;SDS011;64990;51.698;-0.292;2024-03-08T01:24:12;101.43;;;39.50;;
76208;SDS011;64990;51.698;-0.292;2024-03-08T01:26:38;88.68;;;35.83;;
76208;SDS011;64990;51.698;-0.292;2024-03-08T01:29:04;93.05;;;35.47;;
76208;SDS011;64990;51.698;-0.292;2024-03-08T01:31:30;101.55;;;38.45;;
76208;SDS011;64990;51.698;-0.292;2024-03-08T01:33:56;90.63;;;35.60;;
76208;SDS011;64990;51.698;-0.292;2024-03-08T01:36:22;101.07;;;38.47;;
76208;SDS011;64990;51.698;-0.292;2024-03-08T01:38:49;95.82;;;36.78;;
76208;SDS011;64990;51.698;-0.292;2024-03-08T01:41:15;85.13;;;32.45;;
76208;SDS011;64990;51.698;-0.292;2024-03-08T01:43:43;78.50;;;37.60;;
76208;SDS011;64990;51.698;-0.292;2024-03-08T01:46:09;95.03;;;37.78;;
76208;SDS011;64990;51.698;-0.292;2024-03-08T01:48:37;88.25;;;37.13;;
76208;SDS011;64990;51.698;-0.292;2024-03-08T01:51:04;86.25;;;34.78;;
76208;SDS011;64990;51.698;-0.292;2024-03-08T01:53:30;78.47;;;35.55;;
76208;SDS011;64990;51.698;-0.292;2024-03-08T01:55:57;82.72;;;36.17;;
76208;SDS011;64990;51.698;-0.292;2024-03-08T01:58:23;91.07;;;35.58;;
76208;SDS011;64990;51.698;-0.292;2024-03-08T02:00:50;79.75;;;35.25;;
76208;SDS011;64990;51.698;-0.292;2024-03-08T02:03:16;91.07;;;37.75;;
76208;SDS011;64990;51.698;-0.292;2024-03-08T02:05:42;75.60;;;31.13;;
76208;SDS011;64990;51.698;-0.292;2024-03-08T02:08:08;79.82;;;35.78;;
76208;SDS011;64990;51.698;-0.292;2024-03-08T02:10:39;76.43;;;33.08;;
76208;SDS011;64990;51.698;-0.292;2024-03-08T02:13:07;70.00;;;34.00;;
76208;SDS011;64990;51.698;-0.292;2024-03-08T02:15:52;80.60;;;38.28;;
76208;SDS011;64990;51.698;-0.292;2024-03-08T02:18:18;82.68;;;36.33;;
76208;SDS011;64990;51.698;-0.292;2024-03-08T02:20:48;79.65;;;34.70;;
76208;SDS011;64990;51.698;-0.292;2024-03-08T02:23:14;82.30;;;35.53;;
76208;SDS011;64990;51.698;-0.292;2024-03-08T02:25:40;75.63;;;30.80;;
76208;SDS011;64990;51.698;-0.292;2024-03-08T02:28:10;86.05;;;34.00;;
76208;SDS011;64990;51.698;-0.292;2024-03-08T02:30:36;77.10;;;30.88;;
76208;SDS011;64990;51.698;-0.292;2024-03-08T02:33:03;88.60;;;37.13;;
76208;SDS011;64990;51.698;-0.292;2024-03-08T02:35:29;93.95;;;33.63;;
76208;SDS011;64990;51.698;-0.292;2024-03-08T02:37:55;77.45;;;33.55;;
76208;SDS011;64990;51.698;-0.292;2024-03-08T02:40:21;82.10;;;31.48;;
76208;SDS011;64990;51.698;-0.292;2024-03-08T02:42:47;84.90;;;33.78;;
76208;SDS011;64990;51.698;-0.292;2024-03-08T02:45:13;79.20;;;34.53;;
76208;SDS011;64990;51.698;-0.292;2024-03-08T02:47:39;67.63;;;32.38;;
76208;SDS011;64990;51.698;-0.292;2024-03-08T02:50:06;74.25;;;31.45;;
76208;SDS011;64990;51.698;-0.292;2024-03-08T02:52:35;85.72;;;33.25;;
76208;SDS011;64990;51.698;-0.292;2024-03-08T02:55:01;65.75;;;30.45;;
76208;SDS011;64990;51.698;-0.292;2024-03-08T02:57:27;77.72;;;33.60;;
76208;SDS011;64990;51.698;-0.292;2024-03-08T02:59:53;75.97;;;30.95;;
76208;SDS011;64990;51.698;-0.292;2024-03-08T03:02:20;84.55;;;33.40;;
76208;SDS011;64990;51.698;-0.292;2024-03-08T03:04:48;92.10;;;34.53;;
76208;SDS011;64990;51.698;-0.292;2024-03-08T03:07:14;87.88;;;32.83;;
76208;SDS011;64990;51.698;-0.292;2024-03-08T03:09:40;84.57;;;32.92;;
76208;SDS011;64990;51.698;-0.292;2024-03-08T03:12:06;77.03;;;32.65;;
76208;SDS011;64990;51.698;-0.292;2024-03-08T03:14:35;75.00;;;31.80;;
76208;SDS011;64990;51.698;-0.292;2024-03-08T03:17:03;71.32;;;29.63;;
76208;SDS011;64990;51.698;-0.292;2024-03-08T03:19:29;82.38;;;31.55;;
76208;SDS011;64990;51.698;-0.292;2024-03-08T03:21:56;96.18;;;33.92;;
76208;SDS011;64990;51.698;-0.292;2024-03-08T03:24:22;83.60;;;29.85;;
76208;SDS011;64990;51.698;-0.292;2024-03-08T03:26:48;88.40;;;33.95;;
76208;SDS011;64990;51.698;-0.292;2024-03-08T03:29:15;89.93;;;32.72;;
76208;SDS011;64990;51.698;-0.292;2024-03-08T03:31:42;92.93;;;33.05;;
76208;SDS011;64990;51.698;-0.292;2024-03-08T03:34:11;91.15;;;32.85;;
76208;SDS011;64990;51.698;-0.292;2024-03-08T03:36:37;90.40;;;31.77;;
76208;SDS011;64990;51.698;-0.292;2024-03-08T03:39:07;77.38;;;32.53;;
76208;SDS011;64990;51.698;-0.292;2024-03-08T03:41:41;86.53;;;33.13;;
76208;SDS011;64990;51.698;-0.292;2024-03-08T03:44:10;89.93;;;36.30;;
76208;SDS011;64990;51.698;-0.292;2024-03-08T03:46:36;89.90;;;33.25;;
76208;SDS011;64990;51.698;-0.292;2024-03-08T03:49:02;84.50;;;31.58;;
76208;SDS011;64990;51.698;-0.292;2024-03-08T03:51:28;100.53;;;35.80;;
76208;SDS011;64990;51.698;-0.292;2024-03-08T03:53:55;92.30;;;32.55;;
76208;SDS011;64990;51.698;-0.292;2024-03-08T03:56:26;81.78;;;32.08;;
76208;SDS011;64990;51.698;-0.292;2024-03-08T03:58:52;104.45;;;35.45;;
76208;SDS011;64990;51.698;-0.292;2024-03-08T04:01:18;99.47;;;34.05;;
76208;SDS011;64990;51.698;-0.292;2024-03-08T04:03:44;86.10;;;31.83;;
76208;SDS011;64990;51.698;-0.292;2024-03-08T04:06:10;93.22;;;34.13;;
76208;SDS011;64990;51.698;-0.292;2024-03-08T04:08:36;79.15;;;33.28;;
76208;SDS011;64990;51.698;-0.292;2024-03-08T04:11:02;91.53;;;36.80;;
76208;SDS011;64990;51.698;-0.292;2024-03-08T04:13:28;86.22;;;32.58;;
76208;SDS011;64990;51.698;-0.292;2024-03-08T04:15:54;101.43;;;35.42;;
76208;SDS011;64990;51.698;-0.292;2024-03-08T04:18:20;105.03;;;34.75;;
76208;SDS011;64990;51.698;-0.292;2024-03-08T04:20:46;85.35;;;33.40;;
76208;SDS011;64990;51.698;-0.292;2024-03-08T04:23:12;90.68;;;35.05;;
76208;SDS011;64990;51.698;-0.292;2024-03-08T04:25:38;102.85;;;36.63;;
76208;SDS011;64990;51.698;-0.292;2024-03-08T04:28:07;95.32;;;35.78;;
76208;SDS011;64990;51.698;-0.292;2024-03-08T04:30:36;105.68;;;35.55;;
76208;SDS011;64990;51.698;-0.292;2024-03-08T04:33:02;85.88;;;30.83;;
76208;SDS011;64990;51.698;-0.292;2024-03-08T04:35:28;85.85;;;33.35;;
76208;SDS011;64990;51.698;-0.292;2024-03-08T04:37:55;115.25;;;37.15;;
76208;SDS011;64990;51.698;-0.292;2024-03-08T04:40:24;100.60;;;36.80;;
76208;SDS011;64990;51.698;-0.292;2024-03-08T04:42:50;106.43;;;37.67;;
76208;SDS011;64990;51.698;-0.292;2024-03-08T04:45:17;102.55;;;35.33;;
76208;SDS011;64990;51.698;-0.292;2024-03-08T04:47:43;107.75;;;34.72;;
76208;SDS011;64990;51.698;-0.292;2024-03-08T04:50:09;88.72;;;33.88;;
76208;SDS011;64990;51.698;-0.292;2024-03-08T04:52:36;77.50;;;33.28;;
76208;SDS011;64990;51.698;-0.292;2024-03-08T04:55:02;103.20;;;34.30;;
76208;SDS011;64990;51.698;-0.292;2024-03-08T04:57:30;96.53;;;34.38;;
76208;SDS011;64990;51.698;-0.292;2024-03-08T04:59:56;77.85;;;33.33;;
76208;SDS011;64990;51.698;-0.292;2024-03-08T05:02:24;78.82;;;32.60;;
76208;SDS011;64990;51.698;-0.292;2024-03-08T05:04:50;105.70;;;37.72;;
76208;SDS011;64990;51.698;-0.292;2024-03-08T05:07:16;126.28;;;38.08;;
76208;SDS011;64990;51.698;-0.292;2024-03-08T05:09:42;99.72;;;39.65;;
76208;SDS011;64990;51.698;-0.292;2024-03-08T05:12:08;87.88;;;33.78;;
76208;SDS011;64990;51.698;-0.292;2024-03-08T05:14:34;94.68;;;36.25;;
76208;SDS011;64990;51.698;-0.292;2024-03-08T05:17:00;100.43;;;35.50;;
76208;SDS011;64990;51.698;-0.292;2024-03-08T05:19:26;91.25;;;34.92;;
76208;SDS011;64990;51.698;-0.292;2024-03-08T05:21:53;124.47;;;41.28;;
76208;SDS011;64990;51.698;-0.292;2024-03-08T05:24:19;104.20;;;37.05;;
76208;SDS011;64990;51.698;-0.292;2024-03-08T05:26:45;104.25;;;38.42;;
76208;SDS011;64990;51.698;-0.292;2024-03-08T05:29:12;101.20;;;37.47;;
76208;SDS011;64990;51.698;-0.292;2024-03-08T05:31:46;109.53;;;41.47;;
76208;SDS011;64990;51.698;-0.292;2024-03-08T05:34:13;100.72;;;35.70;;
76208;SDS011;64990;51.698;-0.292;2024-03-08T05:36:39;97.30;;;37.25;;
76208;SDS011;64990;51.698;-0.292;2024-03-08T05:39:05;89.07;;;37.85;;
76208;SDS011;64990;51.698;-0.292;2024-03-08T05:41:32;98.95;;;34.28;;
76208;SDS011;64990;51.698;-0.292;2024-03-08T05:43:58;96.93;;;36.30;;
76208;SDS011;64990;51.698;-0.292;2024-03-08T05:46:24;83.68;;;33.40;;
76208;SDS011;64990;51.698;-0.292;2024-03-08T05:48:50;90.63;;;34.50;;
76208;SDS011;64990;51.698;-0.292;2024-03-08T05:51:16;91.45;;;36.60;;
76208;SDS011;64990;51.698;-0.292;2024-03-08T05:53:42;89.45;;;33.67;;
76208;SDS011;64990;51.698;-0.292;2024-03-08T05:56:08;105.88;;;39.38;;
76208;SDS011;64990;51.698;-0.292;2024-03-08T05:58:34;84.90;;;30.08;;
76208;SDS011;64990;51.698;-0.292;2024-03-08T06:01:00;83.75;;;34.78;;
76208;SDS011;64990;51.698;-0.292;2024-03-08T06:03:26;93.63;;;37.40;;
76208;SDS011;64990;51.698;-0.292;2024-03-08T06:05:52;81.22;;;33.55;;
76208;SDS011;64990;51.698;-0.292;2024-03-08T06:08:18;88.88;;;37.97;;
76208;SDS011;64990;51.698;-0.292;2024-03-08T06:10:44;102.97;;;36.13;;
76208;SDS011;64990;51.698;-0.292;2024-03-08T06:13:11;101.10;;;33.85;;
76208;SDS011;64990;51.698;-0.292;2024-03-08T06:15:37;95.53;;;34.80;;
76208;SDS011;64990;51.698;-0.292;2024-03-08T06:18:03;101.38;;;35.50;;
76208;SDS011;64990;51.698;-0.292;2024-03-08T06:20:30;108.30;;;36.67;;
76208;SDS011;64990;51.698;-0.292;2024-03-08T06:22:56;92.18;;;37.15;;
76208;SDS011;64990;51.698;-0.292;2024-03-08T06:25:22;90.30;;;34.45;;
76208;SDS011;64990;51.698;-0.292;2024-03-08T06:27:48;87.97;;;33.40;;
76208;SDS011;64990;51.698;-0.292;2024-03-08T06:30:14;93.78;;;35.75;;
76208;SDS011;64990;51.698;-0.292;2024-03-08T06:32:41;100.65;;;34.08;;
76208;SDS011;64990;51.698;-0.292;2024-03-08T06:35:08;101.78;;;38.47;;
76208;SDS011;64990;51.698;-0.292;2024-03-08T06:37:35;93.90;;;35.88;;
76208;SDS011;64990;51.698;-0.292;2024-03-08T06:40:01;88.82;;;36.35;;
76208;SDS011;64990;51.698;-0.292;2024-03-08T06:42:28;85.53;;;33.97;;
76208;SDS011;64990;51.698;-0.292;2024-03-08T06:44:58;88.28;;;34.13;;
76208;SDS011;64990;51.698;-0.292;2024-03-08T06:47:29;106.53;;;35.85;;
76208;SDS011;64990;51.698;-0.292;2024-03-08T06:49:55;93.53;;;33.60;;
76208;SDS011;64990;51.698;-0.292;2024-03-08T06:52:21;103.28;;;35.85;;
76208;SDS011;64990;51.698;-0.292;2024-03-08T06:54:47;86.90;;;34.20;;
76208;SDS011;64990;51.698;-0.292;2024-03-08T06:57:14;109.35;;;38.50;;
76208;SDS011;64990;51.698;-0.292;2024-03-08T06:59:41;101.28;;;37.70;;
76208;SDS011;64990;51.698;-0.292;2024-03-08T07:02:07;105.78;;;41.90;;
76208;SDS011;64990;51.698;-0.292;2024-03-08T07:04:34;83.10;;;34.05;;
76208;SDS011;64990;51.698;-0.292;2024-03-08T07:07:03;96.55;;;35.25;;
76208;SDS011;64990;51.698;-0.292;2024-03-08T07:09:29;107.63;;;38.38;;
76208;SDS011;64990;51.698;-0.292;2024-03-08T07:11:55;86.55;;;35.60;;
76208;SDS011;64990;51.698;-0.292;2024-03-08T07:14:22;101.72;;;34.67;;
76208;SDS011;64990;51.698;-0.292;2024-03-08T07:16:48;88.15;;;34.20;;
76208;SDS011;64990;51.698;-0.292;2024-03-08T07:19:15;82.88;;;35.58;;
76208;SDS011;64990;51.698;-0.292;2024-03-08T07:21:42;108.57;;;39.03;;
76208;SDS011;64990;51.698;-0.292;2024-03-08T07:24:08;101.70;;;35.47;;
76208;SDS011;64990;51.698;-0.292;2024-03-08T07:27:03;95.97;;;34.35;;
76208;SDS011;64990;51.698;-0.292;2024-03-08T07:29:30;111.93;;;37.88;;
76208;SDS011;64990;51.698;-0.292;2024-03-08T07:31:56;96.57;;;37.85;;
76208;SDS011;64990;51.698;-0.292;2024-03-08T07:34:46;90.35;;;35.65;;
76208;SDS011;64990;51.698;-0.292;2024-03-08T07:37:13;85.07;;;33.78;;
76208;SDS011;64990;51.698;-0.292;2024-03-08T07:39:39;96.53;;;36.85;;
76208;SDS011;64990;51.698;-0.292;2024-03-08T07:42:05;92.00;;;34.17;;
76208;SDS011;64990;51.698;-0.292;2024-03-08T07:44:31;92.05;;;31.15;;
76208;SDS011;64990;51.698;-0.292;2024-03-08T07:46:58;93.75;;;35.20;;
76208;SDS011;64990;51.698;-0.292;2024-03-08T07:49:24;90.85;;;32.17;;
76208;SDS011;64990;51.698;-0.292;2024-03-08T07:51:50;91.03;;;33.35;;
76208;SDS011;64990;51.698;-0.292;2024-03-08T07:54:17;80.03;;;33.60;;
76208;SDS011;64990;51.698;-0.292;2024-03-08T07:56:43;88.57;;;31.85;;
76208;SDS011;64990;51.698;-0.292;2024-03-08T07:59:09;82.10;;;34.28;;
76208;SDS011;64990;51.698;-0.292;2024-03-08T08:01:37;71.07;;;31.67;;
76208;SDS011;64990;51.698;-0.292;2024-03-08T08:04:03;87.93;;;34.55;;
76208;SDS011;64990;51.698;-0.292;2024-03-08T08:06:30;104.47;;;36.90;;
76208;SDS011;64990;51.698;-0.292;2024-03-08T08:09:00;74.65;;;31.23;;
76208;SDS011;64990;51.698;-0.292;2024-03-08T08:11:26;85.82;;;34.03;;
76208;SDS011;64990;51.698;-0.292;2024-03-08T08:13:53;92.15;;;34.65;;
76208;SDS011;64990;51.698;-0.292;2024-03-08T08:16:20;84.35;;;31.63;;
76208;SDS011;64990;51.698;-0.292;2024-03-08T08:18:46;77.88;;;29.67;;
76208;SDS011;64990;51.698;-0.292;2024-03-08T08:21:13;63.17;;;29.08;;
76208;SDS011;64990;51.698;-0.292;2024-03-08T08:23:38;82.03;;;32.38;;
76208;SDS011;64990;51.698;-0.292;2024-03-08T08:26:05;65.35;;;30.73;;
76208;SDS011;64990;51.698;-0.292;2024-03-08T08:28:32;69.53;;;30.10;;
76208;SDS011;64990;51.698;-0.292;2024-03-08T08:30:58;80.03;;;33.35;;
76208;SDS011;64990;51.698;-0.292;2024-03-08T08:33:24;72.43;;;30.10;;
76208;SDS011;64990;51.698;-0.292;2024-03-08T08:35:51;76.72;;;30.23;;
76208;SDS011;64990;51.698;-0.292;2024-03-08T08:38:19;78.00;;;31.42;;
76208;SDS011;64990;51.698;-0.292;2024-03-08T08:40:45;80.78;;;30.02;;
76208;SDS011;64990;51.698;-0.292;2024-03-08T08:43:12;73.35;;;31.38;;
76208;SDS011;64990;51.698;-0.292;2024-03-08T08:45:39;62.15;;;27.85;;
76208;SDS011;64990;51.698;-0.292;2024-03-08T08:48:05;72.15;;;29.33;;
76208;SDS011;64990;51.698;-0.292;2024-03-08T08:50:31;70.57;;;30.45;;
76208;SDS011;64990;51.698;-0.292;2024-03-08T08:52:57;75.03;;;29.08;;
76208;SDS011;64990;51.698;-0.292;2024-03-08T08:55:24;84.38;;;30.75;;
76208;SDS011;64990;51.698;-0.292;2024-03-08T08:57:50;63.13;;;25.98;;
76208;SDS011;64990;51.698;-0.292;2024-03-08T09:00:17;73.65;;;31.60;;
76208;SDS011;64990;51.698;-0.292;2024-03-08T09:02:45;68.30;;;30.60;;
76208;SDS011;64990;51.698;-0.292;2024-03-08T09:05:11;64.57;;;29.60;;
76208;SDS011;64990;51.698;-0.292;2024-03-08T09:07:37;74.53;;;29.77;;
76208;SDS011;64990;51.698;-0.292;2024-03-08T09:10:03;79.90;;;32.33;;
76208;SDS011;64990;51.698;-0.292;2024-03-08T09:12:29;67.07;;;27.08;;
76208;SDS011;64990;51.698;-0.292;2024-03-08T09:14:57;60.67;;;30.60;;
76208;SDS011;64990;51.698;-0.292;2024-03-08T09:17:24;70.13;;;27.42;;
76208;SDS011;64990;51.698;-0.292;2024-03-08T09:19:50;72.53;;;28.70;;
76208;SDS011;64990;51.698;-0.292;2024-03-08T09:22:17;57.03;;;27.13;;
76208;SDS011;64990;51.698;-0.292;2024-03-08T09:24:43;78.53;;;30.08;;
76208;SDS011;64990;51.698;-0.292;2024-03-08T09:27:09;70.40;;;27.98;;
76208;SDS011;64990;51.698;-0.292;2024-03-08T09:29:35;67.03;;;29.40;;
76208;SDS011;64990;51.698;-0.292;2024-03-08T09:32:01;63.70;;;25.63;;
76208;SDS011;64990;51.698;-0.292;2024-03-08T09:34:28;82.00;;;33.28;;
76208;SDS011;64990;51.698;-0.292;2024-03-08T09:36:55;70.32;;;29.80;;
76208;SDS011;64990;51.698;-0.292;2024-03-08T09:39:21;64.63;;;31.58;;
76208;SDS011;64990;51.698;-0.292;2024-03-08T09:41:48;62.90;;;28.92;;
76208;SDS011;64990;51.698;-0.292;2024-03-08T09:44:14;78.03;;;29.17;;
76208;SDS011;64990;51.698;-0.292;2024-03-08T09:46:40;63.65;;;26.33;;
76208;SDS011;64990;51.698;-0.292;2024-03-08T09:49:07;76.03;;;31.67;;
76208;SDS011;64990;51.698;-0.292;2024-03-08T09:51:33;72.57;;;30.38;;
76208;SDS011;64990;51.698;-0.292;2024-03-08T09:54:05;59.78;;;27.02;;
76208;SDS011;64990;51.698;-0.292;2024-03-08T09:56:34;66.80;;;28.13;;
76208;SDS011;64990;51.698;-0.292;2024-03-08T09:59:01;71.35;;;31.45;;
76208;SDS011;64990;51.698;-0.292;2024-03-08T10:01:45;68.70;;;27.23;;
76208;SDS011;64990;51.698;-0.292;2024-03-08T10:04:11;64.45;;;28.58;;
76208;SDS011;64990;51.698;-0.292;2024-03-08T10:06:39;55.75;;;27.65;;
76208;SDS011;64990;51.698;-0.292;2024-03-08T10:09:05;55.83;;;27.05;;
76208;SDS011;64990;51.698;-0.292;2024-03-08T10:11:33;57.08;;;23.25;;
76208;SDS011;64990;51.698;-0.292;2024-03-08T10:14:00;62.45;;;25.48;;
76208;SDS011;64990;51.698;-0.292;2024-03-08T10:16:29;50.28;;;25.48;;
76208;SDS011;64990;51.698;-0.292;2024-03-08T10:18:58;54.70;;;23.35;;
76208;SDS011;64990;51.698;-0.292;2024-03-08T10:21:26;52.55;;;23.10;;
76208;SDS011;64990;51.698;-0.292;2024-03-08T10:23:52;46.38;;;24.10;;
76208;SDS011;64990;51.698;-0.292;2024-03-08T10:26:19;48.85;;;23.98;;
76208;SDS011;64990;51.698;-0.292;2024-03-08T10:28:50;49.67;;;22.48;;
76208;SDS011;64990;51.698;-0.292;2024-03-08T10:31:17;46.67;;;21.85;;
76208;SDS011;64990;51.698;-0.292;2024-03-08T10:33:44;51.92;;;23.73;;
76208;SDS011;64990;51.698;-0.292;2024-03-08T10:36:10;50.03;;;22.98;;
76208;SDS011;64990;51.698;-0.292;2024-03-08T10:38:38;50.00;;;23.38;;
76208;SDS011;64990;51.698;-0.292;2024-03-08T10:41:05;42.08;;;20.13;;
76208;SDS011;64990;51.698;-0.292;2024-03-08T10:43:33;46.83;;;20.65;;
76208;SDS011;64990;51.698;-0.292;2024-03-08T10:48:44;44.17;;;22.73;;
76208;SDS011;64990;51.698;-0.292;2024-03-08T10:51:13;54.13;;;21.40;;
76208;SDS011;64990;51.698;-0.292;2024-03-08T10:53:40;44.25;;;21.08;;
76208;SDS011;64990;51.698;-0.292;2024-03-08T10:56:07;44.05;;;20.83;;
76208;SDS011;64990;51.698;-0.292;2024-03-08T10:58:35;45.63;;;20.42;;
76208;SDS011;64990;51.698;-0.292;2024-03-08T11:01:01;37.35;;;18.90;;
76208;SDS011;64990;51.698;-0.292;2024-03-08T11:08:51;40.88;;;19.73;;
76208;SDS011;64990;51.698;-0.292;2024-03-08T11:11:30;42.40;;;20.30;;
76208;SDS011;64990;51.698;-0.292;2024-03-08T11:13:56;40.50;;;19.52;;
76208;SDS011;64990;51.698;-0.292;2024-03-08T11:18:53;33.47;;;17.30;;
76208;SDS011;64990;51.698;-0.292;2024-03-08T11:21:20;33.03;;;17.85;;
76208;SDS011;64990;51.698;-0.292;2024-03-08T11:24:06;33.50;;;17.23;;
76208;SDS011;64990;51.698;-0.292;2024-03-08T11:26:33;36.67;;;18.02;;
76208;SDS011;64990;51.698;-0.292;2024-03-08T11:31:46;44.00;;;16.10;;
76208;SDS011;64990;51.698;-0.292;2024-03-08T11:34:15;44.97;;;19.85;;
76208;SDS011;64990;51.698;-0.292;2024-03-08T11:36:41;40.83;;;17.30;;
76208;SDS011;64990;51.698;-0.292;2024-03-08T11:39:08;34.15;;;17.35;;
76208;SDS011;64990;51.698;-0.292;2024-03-08T11:41:39;40.38;;;19.77;;
76208;SDS011;64990;51.698;-0.292;2024-03-08T11:44:07;38.35;;;19.08;;
76208;SDS011;64990;51.698;-0.292;2024-03-08T11:46:35;43.00;;;16.40;;
76208;SDS011;64990;51.698;-0.292;2024-03-08T11:49:02;34.65;;;16.10;;
76208;SDS011;64990;51.698;-0.292;2024-03-08T11:51:28;40.58;;;18.45;;
76208;SDS011;64990;51.698;-0.292;2024-03-08T11:53:56;40.47;;;18.67;;
76208;SDS011;64990;51.698;-0.292;2024-03-08T11:56:22;32.30;;;18.55;;
76208;SDS011;64990;51.698;-0.292;2024-03-08T11:58:55;40.70;;;18.35;;
76208;SDS011;64990;51.698;-0.292;2024-03-08T12:01:25;39.88;;;18.73;;
76208;SDS011;64990;51.698;-0.292;2024-03-08T12:03:53;28.83;;;18.17;;
76208;SDS011;64990;51.698;-0.292;2024-03-08T12:06:19;40.38;;;18.70;;
76208;SDS011;64990;51.698;-0.292;2024-03-08T12:08:46;32.40;;;16.80;;
76208;SDS011;64990;51.698;-0.292;2024-03-08T12:11:16;35.95;;;18.90;;
76208;SDS011;64990;51.698;-0.292;2024-03-08T12:13:47;44.95;;;19.13;;
76208;SDS011;64990;51.698;-0.292;2024-03-08T12:16:16;51.10;;;18.58;;
76208;SDS011;64990;51.698;-0.292;2024-03-08T12:18:43;34.25;;;16.73;;
76208;SDS011;64990;51.698;-0.292;2024-03-08T12:21:10;28.15;;;15.63;;
76208;SDS011;64990;51.698;-0.292;2024-03-08T12:23:37;33.85;;;16.33;;
76208;SDS011;64990;51.698;-0.292;2024-03-08T12:26:11;36.38;;;17.92;;
76208;SDS011;64990;51.698;-0.292;2024-03-08T12:28:41;32.63;;;15.88;;
76208;SDS011;64990;51.698;-0.292;2024-03-08T12:31:09;34.75;;;15.60;;
76208;SDS011;64990;51.698;-0.292;2024-03-08T12:33:36;26.65;;;14.65;;
76208;SDS011;64990;51.698;-0.292;2024-03-08T12:36:02;30.20;;;15.48;;
76208;SDS011;64990;51.698;-0.292;2024-03-08T12:38:32;33.05;;;16.05;;
76208;SDS011;64990;51.698;-0.292;2024-03-08T12:41:00;34.97;;;15.90;;
76208;SDS011;64990;51.698;-0.292;2024-03-08T12:43:29;32.60;;;17.30;;
76208;SDS011;64990;51.698;-0.292;2024-03-08T12:45:55;30.90;;;15.98;;
76208;SDS011;64990;51.698;-0.292;2024-03-08T12:48:22;30.02;;;15.80;;
76208;SDS011;64990;51.698;-0.292;2024-03-08T12:50:48;31.23;;;14.57;;
76208;SDS011;64990;51.698;-0.292;2024-03-08T12:53:16;31.77;;;14.98;;
76208;SDS011;64990;51.698;-0.292;2024-03-08T12:55:42;27.33;;;15.15;;
76208;SDS011;64990;51.698;-0.292;2024-03-08T12:58:08;33.67;;;16.88;;
76208;SDS011;64990;51.698;-0.292;2024-03-08T13:00:35;32.92;;;17.02;;
76208;SDS011;64990;51.698;-0.292;2024-03-08T13:03:07;38.28;;;18.08;;
76208;SDS011;64990;51.698;-0.292;2024-03-08T13:05:35;32.75;;;15.88;;
76208;SDS011;64990;51.698;-0.292;2024-03-08T13:08:05;39.88;;;19.52;;
76208;SDS011;64990;51.698;-0.292;2024-03-08T13:10:31;44.63;;;19.08;;
76208;SDS011;64990;51.698;-0.292;2024-03-08T13:12:57;40.55;;;17.65;;
76208;SDS011;64990;51.698;-0.292;2024-03-08T13:15:23;38.92;;;18.40;;
76208;SDS011;64990;51.698;-0.292;2024-03-08T13:17:49;47.42;;;18.48;;
76208;SDS011;64990;51.698;-0.292;2024-03-08T13:20:15;43.80;;;17.73;;
76208;SDS011;64990;51.698;-0.292;2024-03-08T13:22:44;32.67;;;18.40;;
76208;SDS011;64990;51.698;-0.292;2024-03-08T13:25:12;34.97;;;18.15;;
76208;SDS011;64990;51.698;-0.292;2024-03-08T13:27:41;30.73;;;14.75;;
76208;SDS011;64990;51.698;-0.292;2024-03-08T13:30:10;29.92;;;16.92;;
76208;SDS011;64990;51.698;-0.292;2024-03-08T13:32:43;37.45;;;16.48;;
76208;SDS011;64990;51.698;-0.292;2024-03-08T13:35:12;40.28;;;18.42;;
76208;SDS011;64990;51.698;-0.292;2024-03-08T13:37:41;36.53;;;18.23;;
76208;SDS011;64990;51.698;-0.292;2024-03-08T13:40:08;55.08;;;21.00;;
76208;SDS011;64990;51.698;-0.292;2024-03-08T13:42:39;32.75;;;17.60;;
76208;SDS011;64990;51.698;-0.292;2024-03-08T13:45:07;32.40;;;16.40;;
76208;SDS011;64990;51.698;-0.292;2024-03-08T13:47:37;39.38;;;17.42;;
76208;SDS011;64990;51.698;-0.292;2024-03-08T13:50:05;27.88;;;15.15;;
76208;SDS011;64990;51.698;-0.292;2024-03-08T13:52:32;32.50;;;18.42;;
76208;SDS011;64990;51.698;-0.292;2024-03-08T13:54:59;39.50;;;17.08;;
76208;SDS011;64990;51.698;-0.292;2024-03-08T13:57:25;51.67;;;19.90;;
76208;SDS011;64990;51.698;-0.292;2024-03-08T13:59:52;31.48;;;17.70;;
76208;SDS011;64990;51.698;-0.292;2024-03-08T14:02:18;36.10;;;19.27;;
76208;SDS011;64990;51.698;-0.292;2024-03-08T14:04:47;40.67;;;19.38;;
76208;SDS011;64990;51.698;-0.292;2024-03-08T14:07:14;31.95;;;18.67;;
76208;SDS011;64990;51.698;-0.292;2024-03-08T14:09:41;38.53;;;18.52;;
76208;SDS011;64990;51.698;-0.292;2024-03-08T14:12:08;46.58;;;18.95;;
76208;SDS011;64990;51.698;-0.292;2024-03-08T14:14:34;33.95;;;17.42;;
76208;SDS011;64990;51.698;-0.292;2024-03-08T14:17:01;38.60;;;16.60;;
76208;SDS011;64990;51.698;-0.292;2024-03-08T14:19:30;57.35;;;22.10;;